createdAt,value
2023-12-17T00:00:56.452Z,96.23
2023-12-17T00:03:23.528Z,96.54
2023-12-17T00:05:50.468Z,96.68
2023-12-17T00:08:17.178Z,96.85
2023-12-17T00:10:44.081Z,97.48
2023-12-17T00:13:10.842Z,97.38
2023-12-17T00:15:37.534Z,98.29
2023-12-17T00:18:05.083Z,97.25
2023-12-17T00:20:31.849Z,97.33
2023-12-17T00:22:58.543Z,96.79
2023-12-17T00:25:25.208Z,97.34
2023-12-17T00:27:52.047Z,99.93
2023-12-17T00:30:18.842Z,99.44
2023-12-17T00:32:45.713Z,99.54
2023-12-17T00:35:12.731Z,99.47
2023-12-17T00:37:39.740Z,100.00
2023-12-17T00:40:07.271Z,100.00
2023-12-17T00:42:34.250Z,100.00
2023-12-17T00:45:01.074Z,100.00
2023-12-17T00:47:27.914Z,100.00
2023-12-17T00:49:54.727Z,100.00
2023-12-17T00:52:21.630Z,100.00
2023-12-17T00:54:48.427Z,100.00
2023-12-17T00:57:15.557Z,100.00
2023-12-17T00:59:42.414Z,100.00
2023-12-17T01:02:09.097Z,100.00
2023-12-17T01:04:35.796Z,100.00
2023-12-17T01:07:02.695Z,100.00
2023-12-17T01:09:29.482Z,100.00
2023-12-17T01:11:56.344Z,100.00
2023-12-17T01:14:23.110Z,100.00
2023-12-17T01:16:50.086Z,100.00
2023-12-17T01:19:16.817Z,100.00
2023-12-17T01:21:43.663Z,100.00
2023-12-17T01:24:11.719Z,100.00
2023-12-17T01:26:38.606Z,100.00
2023-12-17T01:29:05.399Z,100.00
2023-12-17T01:31:32.083Z,100.00
2023-12-17T01:33:59.126Z,100.00
2023-12-17T01:36:26.116Z,100.00
2023-12-17T01:38:53.016Z,100.00
2023-12-17T01:41:19.741Z,100.00
2023-12-17T01:43:46.845Z,100.00
2023-12-17T01:46:15.523Z,100.00
2023-12-17T01:48:43.280Z,100.00
2023-12-17T01:51:10.983Z,100.00
2023-12-17T01:53:38.073Z,100.00
2023-12-17T01:56:06.570Z,100.00
2023-12-17T01:58:33.332Z,100.00
2023-12-17T02:01:00.562Z,100.00
2023-12-17T02:03:27.538Z,100.00
2023-12-17T02:05:54.430Z,100.00
2023-12-17T02:08:21.243Z,100.00
2023-12-17T02:10:47.948Z,100.00
2023-12-17T02:13:14.641Z,100.00
2023-12-17T02:15:41.382Z,100.00
2023-12-17T02:18:08.271Z,100.00
2023-12-17T02:20:35.378Z,100.00
2023-12-17T02:23:05.441Z,100.00
2023-12-17T02:25:32.318Z,100.00
2023-12-17T02:27:59.602Z,100.00
2023-12-17T02:30:26.591Z,100.00
2023-12-17T02:32:53.601Z,100.00
2023-12-17T02:35:21.047Z,100.00
2023-12-17T02:37:47.707Z,100.00
2023-12-17T02:40:14.580Z,100.00
2023-12-17T02:42:41.375Z,100.00
2023-12-17T02:45:09.085Z,100.00
2023-12-17T02:47:36.043Z,100.00
2023-12-17T02:50:03.133Z,100.00
2023-12-17T02:52:29.988Z,100.00
2023-12-17T02:54:56.646Z,100.00
2023-12-17T02:57:23.472Z,100.00
2023-12-17T02:59:50.228Z,100.00
2023-12-17T03:02:16.976Z,100.00
2023-12-17T03:04:43.753Z,100.00
2023-12-17T03:07:10.563Z,100.00
2023-12-17T03:09:37.326Z,100.00
2023-12-17T03:12:04.890Z,100.00
2023-12-17T03:14:34.533Z,100.00
2023-12-17T03:17:01.497Z,100.00
2023-12-17T03:19:28.283Z,100.00
2023-12-17T03:21:55.016Z,100.00
2023-12-17T03:24:21.779Z,100.00
2023-12-17T03:26:48.751Z,100.00
2023-12-17T03:29:15.611Z,100.00
2023-12-17T03:31:42.323Z,100.00
2023-12-17T03:34:09.129Z,100.00
2023-12-17T03:36:36.007Z,100.00
2023-12-17T03:39:02.961Z,100.00
2023-12-17T03:41:30.051Z,100.00
2023-12-17T03:43:58.316Z,100.00
2023-12-17T03:46:27.337Z,100.00
2023-12-17T03:48:54.551Z,100.00
2023-12-17T03:51:21.889Z,100.00
2023-12-17T03:53:49.936Z,100.00
2023-12-17T03:56:17.599Z,100.00
2023-12-17T03:58:44.437Z,100.00
2023-12-17T04:01:11.450Z,100.00
2023-12-17T04:03:38.512Z,100.00
2023-12-17T04:06:07.222Z,100.00
2023-12-17T04:08:34.193Z,100.00
2023-12-17T04:11:00.836Z,100.00
2023-12-17T04:13:27.686Z,100.00
2023-12-17T04:15:54.338Z,100.00
2023-12-17T04:18:21.522Z,100.00
2023-12-17T04:20:48.282Z,100.00
2023-12-17T04:23:15.651Z,100.00
2023-12-17T04:25:42.346Z,100.00
2023-12-17T04:28:09.167Z,100.00
2023-12-17T04:30:35.874Z,100.00
2023-12-17T04:33:02.987Z,100.00
2023-12-17T04:35:29.787Z,100.00
2023-12-17T04:37:56.513Z,100.00
2023-12-17T04:40:23.248Z,100.00
2023-12-17T04:42:50.029Z,100.00
2023-12-17T04:45:16.689Z,100.00
2023-12-17T04:47:43.941Z,100.00
2023-12-17T04:50:10.971Z,100.00
2023-12-17T04:52:38.253Z,100.00
2023-12-17T04:55:05.503Z,100.00
2023-12-17T04:57:32.243Z,100.00
2023-12-17T04:59:59.145Z,100.00
2023-12-17T05:02:25.875Z,100.00
2023-12-17T05:04:52.670Z,100.00
2023-12-17T05:07:19.644Z,100.00
2023-12-17T05:09:46.397Z,100.00
2023-12-17T05:12:13.159Z,100.00
2023-12-17T05:14:39.963Z,100.00
2023-12-17T05:17:06.672Z,100.00
2023-12-17T05:19:33.727Z,100.00
2023-12-17T05:22:00.601Z,100.00
2023-12-17T05:24:27.356Z,100.00
2023-12-17T05:26:54.115Z,100.00
2023-12-17T05:29:20.861Z,100.00
2023-12-17T05:31:47.652Z,100.00
2023-12-17T05:34:14.620Z,100.00
2023-12-17T05:36:41.466Z,100.00
2023-12-17T05:39:08.230Z,100.00
2023-12-17T05:41:35.194Z,100.00
2023-12-17T05:44:01.870Z,100.00
2023-12-17T05:46:28.530Z,100.00
2023-12-17T05:48:55.535Z,100.00
2023-12-17T05:51:22.520Z,100.00
2023-12-17T05:53:49.263Z,100.00
2023-12-17T05:56:16.069Z,100.00
2023-12-17T05:58:43.735Z,100.00
2023-12-17T06:01:12.043Z,100.00
2023-12-17T06:03:39.600Z,100.00
2023-12-17T06:06:07.653Z,100.00
2023-12-17T06:08:34.784Z,100.00
2023-12-17T06:11:01.457Z,100.00
2023-12-17T06:13:28.138Z,100.00
2023-12-17T06:15:54.840Z,100.00
2023-12-17T06:18:21.708Z,100.00
2023-12-17T06:20:48.485Z,100.00
2023-12-17T06:23:15.361Z,100.00
2023-12-17T06:25:41.985Z,100.00
2023-12-17T06:28:08.644Z,100.00
2023-12-17T06:30:35.406Z,100.00
2023-12-17T06:33:02.384Z,100.00
2023-12-17T06:35:29.176Z,100.00
2023-12-17T06:37:55.961Z,100.00
2023-12-17T06:40:22.902Z,100.00
2023-12-17T06:42:49.698Z,100.00
2023-12-17T06:45:17.359Z,100.00
2023-12-17T06:47:46.099Z,100.00
2023-12-17T06:50:13.744Z,100.00
2023-12-17T06:52:54.519Z,100.00
2023-12-17T06:55:21.661Z,100.00
2023-12-17T06:57:48.298Z,100.00
2023-12-17T07:00:16.597Z,100.00
2023-12-17T07:02:43.713Z,100.00
2023-12-17T07:05:10.510Z,100.00
2023-12-17T07:07:37.298Z,100.00
2023-12-17T07:10:04.723Z,100.00
2023-12-17T07:12:31.415Z,100.00
2023-12-17T07:14:58.353Z,100.00
2023-12-17T07:17:25.202Z,100.00
2023-12-17T07:19:51.902Z,100.00
2023-12-17T07:22:18.903Z,100.00
2023-12-17T07:24:45.528Z,100.00
2023-12-17T07:27:12.234Z,100.00
2023-12-17T07:29:39.071Z,100.00
2023-12-17T07:32:05.928Z,100.00
2023-12-17T07:34:32.799Z,100.00
2023-12-17T07:37:01.694Z,100.00
2023-12-17T07:39:28.667Z,100.00
2023-12-17T07:41:55.551Z,100.00
2023-12-17T07:44:22.476Z,100.00
2023-12-17T07:46:49.209Z,100.00
2023-12-17T07:49:16.191Z,100.00
2023-12-17T07:51:43.637Z,100.00
2023-12-17T07:54:10.661Z,100.00
2023-12-17T07:56:41.620Z,100.00
2023-12-17T07:59:08.420Z,100.00
2023-12-17T08:01:35.593Z,100.00
2023-12-17T08:04:05.670Z,100.00
2023-12-17T08:06:35.099Z,100.00
2023-12-17T08:09:03.939Z,100.00
2023-12-17T08:11:30.871Z,100.00
2023-12-17T08:13:57.790Z,100.00
2023-12-17T08:16:26.287Z,100.00
2023-12-17T08:18:53.417Z,100.00
2023-12-17T08:21:20.473Z,100.00
2023-12-17T08:23:47.438Z,100.00
2023-12-17T08:26:14.273Z,100.00
2023-12-17T08:28:40.935Z,100.00
2023-12-17T08:31:11.053Z,100.00
2023-12-17T08:33:39.163Z,100.00
2023-12-17T08:36:06.484Z,100.00
2023-12-17T08:38:33.221Z,100.00
2023-12-17T08:40:59.970Z,100.00
2023-12-17T08:43:26.872Z,100.00
2023-12-17T08:45:53.581Z,100.00
2023-12-17T08:48:20.382Z,100.00
2023-12-17T08:50:47.278Z,100.00
2023-12-17T08:53:14.055Z,100.00
2023-12-17T08:55:40.977Z,100.00
2023-12-17T08:58:07.660Z,100.00
2023-12-17T09:00:34.689Z,100.00
2023-12-17T09:03:01.493Z,100.00
2023-12-17T09:05:28.267Z,100.00
2023-12-17T09:07:55.030Z,100.00
2023-12-17T09:10:21.717Z,100.00
2023-12-17T09:12:50.881Z,100.00
2023-12-17T09:15:17.950Z,100.00
2023-12-17T09:17:45.348Z,100.00
2023-12-17T09:20:15.336Z,100.00
2023-12-17T09:22:42.109Z,100.00
2023-12-17T09:25:09.412Z,100.00
2023-12-17T09:27:36.185Z,100.00
2023-12-17T09:30:06.062Z,100.00
2023-12-17T09:32:32.896Z,100.00
2023-12-17T09:34:59.684Z,100.00
2023-12-17T09:37:26.476Z,100.00
2023-12-17T09:39:55.812Z,100.00
2023-12-17T09:42:22.616Z,100.00
2023-12-17T09:44:49.628Z,100.00
2023-12-17T09:47:16.562Z,100.00
2023-12-17T09:49:45.717Z,100.00
2023-12-17T09:52:18.690Z,100.00
2023-12-17T09:54:45.460Z,100.00
2023-12-17T09:57:13.385Z,100.00
2023-12-17T09:59:41.201Z,100.00
2023-12-17T10:02:11.076Z,100.00
2023-12-17T10:04:37.807Z,100.00
2023-12-17T10:07:04.922Z,100.00
2023-12-17T10:09:34.156Z,100.00
2023-12-17T10:12:01.083Z,100.00
2023-12-17T10:14:27.952Z,100.00
2023-12-17T10:16:54.865Z,100.00
2023-12-17T10:19:22.735Z,100.00
2023-12-17T10:21:50.456Z,100.00
2023-12-17T10:24:19.861Z,100.00
2023-12-17T10:26:48.250Z,100.00
2023-12-17T10:29:19.888Z,100.00
2023-12-17T10:31:46.722Z,100.00
2023-12-17T10:34:19.626Z,100.00
2023-12-17T10:36:51.105Z,100.00
2023-12-17T10:39:20.120Z,100.00
2023-12-17T10:41:52.202Z,100.00
2023-12-17T10:44:21.443Z,100.00
2023-12-17T10:46:50.122Z,100.00
2023-12-17T10:49:20.786Z,100.00
2023-12-17T10:51:49.724Z,100.00
2023-12-17T10:54:16.458Z,100.00
2023-12-17T10:56:48.057Z,100.00
2023-12-17T10:59:27.106Z,100.00
2023-12-17T11:02:02.819Z,100.00
2023-12-17T11:04:29.911Z,100.00
2023-12-17T11:06:57.108Z,100.00
2023-12-17T11:09:25.528Z,100.00
2023-12-17T11:11:52.855Z,100.00
2023-12-17T11:14:23.276Z,100.00
2023-12-17T11:16:50.122Z,100.00
2023-12-17T11:19:21.053Z,100.00
2023-12-17T11:21:47.858Z,100.00
2023-12-17T11:24:14.725Z,100.00
2023-12-17T11:26:44.810Z,100.00
2023-12-17T11:29:33.277Z,100.00
2023-12-17T11:32:01.951Z,100.00
2023-12-17T11:34:31.561Z,100.00
2023-12-17T11:36:59.524Z,100.00
2023-12-17T11:39:28.645Z,100.00
2023-12-17T11:41:55.955Z,100.00
2023-12-17T11:44:23.658Z,100.00
2023-12-17T11:46:51.035Z,100.00
2023-12-17T11:49:25.157Z,100.00
2023-12-17T11:51:53.624Z,100.00
2023-12-17T11:54:21.085Z,100.00
2023-12-17T11:56:51.224Z,100.00
2023-12-17T11:59:38.024Z,100.00
2023-12-17T12:02:06.858Z,100.00
2023-12-17T12:04:41.391Z,100.00
2023-12-17T12:07:09.841Z,100.00
2023-12-17T12:09:36.860Z,100.00
2023-12-17T12:12:15.362Z,100.00
2023-12-17T12:14:42.795Z,100.00
2023-12-17T12:17:29.767Z,100.00
2023-12-17T12:19:56.730Z,100.00
2023-12-17T12:22:28.688Z,100.00
2023-12-17T12:24:58.637Z,100.00
2023-12-17T12:27:25.662Z,100.00
2023-12-17T12:29:57.401Z,100.00
2023-12-17T12:32:28.770Z,100.00
2023-12-17T12:34:56.100Z,100.00
2023-12-17T12:37:36.208Z,100.00
2023-12-17T12:40:10.605Z,100.00
2023-12-17T12:42:39.402Z,100.00
2023-12-17T12:45:07.063Z,100.00
2023-12-17T12:47:34.062Z,100.00
2023-12-17T12:50:06.768Z,100.00
2023-12-17T12:52:33.760Z,100.00
2023-12-17T12:55:00.655Z,100.00
2023-12-17T12:57:27.487Z,100.00
2023-12-17T12:59:54.362Z,100.00
2023-12-17T13:02:21.468Z,100.00
2023-12-17T13:04:48.193Z,100.00
2023-12-17T13:07:15.524Z,100.00
2023-12-17T13:09:42.800Z,100.00
2023-12-17T13:12:09.819Z,100.00
2023-12-17T13:14:36.630Z,100.00
2023-12-17T13:17:06.111Z,100.00
2023-12-17T13:19:33.195Z,100.00
2023-12-17T13:22:00.028Z,100.00
2023-12-17T13:24:27.539Z,100.00
2023-12-17T13:26:54.999Z,100.00
2023-12-17T13:29:21.748Z,100.00
2023-12-17T13:31:48.522Z,100.00
2023-12-17T13:34:15.607Z,100.00
2023-12-17T13:36:42.339Z,100.00
2023-12-17T13:39:09.292Z,100.00
2023-12-17T13:41:44.688Z,100.00
2023-12-17T13:44:15.168Z,100.00
2023-12-17T13:46:44.951Z,100.00
2023-12-17T13:49:14.407Z,100.00
2023-12-17T13:51:44.138Z,100.00
2023-12-17T13:54:10.899Z,100.00
2023-12-17T13:56:41.829Z,100.00
2023-12-17T13:59:11.952Z,100.00
2023-12-17T14:01:40.414Z,100.00
2023-12-17T14:04:09.776Z,100.00
2023-12-17T14:06:36.582Z,100.00
2023-12-17T14:09:03.536Z,100.00
2023-12-17T14:11:34.361Z,100.00
2023-12-17T14:14:01.812Z,100.00
2023-12-17T14:16:28.451Z,100.00
2023-12-17T14:18:56.467Z,100.00
2023-12-17T14:21:23.268Z,100.00
2023-12-17T14:23:50.053Z,100.00
2023-12-17T14:26:17.027Z,100.00
2023-12-17T14:28:47.948Z,100.00
2023-12-17T14:31:14.850Z,100.00
2023-12-17T14:33:41.946Z,100.00
2023-12-17T14:36:09.448Z,100.00
2023-12-17T14:38:39.341Z,100.00
2023-12-17T14:41:08.657Z,100.00
2023-12-17T14:43:35.349Z,100.00
2023-12-17T14:46:04.180Z,100.00
2023-12-17T14:48:31.326Z,100.00
2023-12-17T14:50:58.166Z,100.00
2023-12-17T14:53:25.044Z,100.00
2023-12-17T14:55:51.793Z,100.00
2023-12-17T14:58:18.601Z,100.00
2023-12-17T15:00:51.637Z,100.00
2023-12-17T15:03:18.920Z,100.00
2023-12-17T15:05:46.632Z,100.00
2023-12-17T15:08:16.393Z,100.00
2023-12-17T15:10:44.608Z,100.00
2023-12-17T15:13:11.866Z,100.00
2023-12-17T15:15:38.801Z,100.00
2023-12-17T15:18:05.814Z,100.00
2023-12-17T15:20:32.719Z,100.00
2023-12-17T15:22:59.606Z,100.00
2023-12-17T15:25:26.316Z,100.00
2023-12-17T15:27:53.284Z,100.00
2023-12-17T15:30:23.389Z,100.00
2023-12-17T15:32:50.177Z,100.00
2023-12-17T15:35:17.191Z,100.00
2023-12-17T15:37:44.137Z,100.00
2023-12-17T15:40:11.128Z,100.00
2023-12-17T15:42:37.970Z,100.00
2023-12-17T15:45:05.298Z,100.00
2023-12-17T15:47:34.467Z,100.00
2023-12-17T15:50:07.900Z,100.00
2023-12-17T15:52:35.017Z,100.00
2023-12-17T15:55:02.395Z,100.00
2023-12-17T15:57:29.471Z,100.00
2023-12-17T15:59:56.377Z,100.00
2023-12-17T16:02:23.328Z,100.00
2023-12-17T16:04:50.036Z,100.00
2023-12-17T16:07:17.033Z,100.00
2023-12-17T16:09:43.786Z,100.00
2023-12-17T16:12:10.781Z,100.00
2023-12-17T16:14:37.607Z,100.00
2023-12-17T16:17:04.660Z,100.00
2023-12-17T16:19:31.585Z,100.00
2023-12-17T16:22:00.748Z,100.00
2023-12-17T16:24:28.026Z,100.00
2023-12-17T16:26:55.395Z,100.00
2023-12-17T16:29:22.199Z,100.00
2023-12-17T16:31:48.881Z,100.00
2023-12-17T16:34:16.044Z,100.00
2023-12-17T16:36:46.158Z,100.00
2023-12-17T16:39:13.001Z,100.00
2023-12-17T16:41:44.021Z,100.00
2023-12-17T16:44:10.745Z,100.00
2023-12-17T16:46:40.596Z,100.00
2023-12-17T16:49:07.353Z,100.00
2023-12-17T16:51:34.122Z,100.00
2023-12-17T16:54:00.834Z,100.00
2023-12-17T16:56:27.866Z,100.00
2023-12-17T16:58:54.641Z,100.00
2023-12-17T17:01:24.470Z,100.00
2023-12-17T17:03:51.316Z,100.00
2023-12-17T17:06:18.135Z,100.00
2023-12-17T17:08:45.034Z,100.00
2023-12-17T17:11:13.695Z,100.00
2023-12-17T17:13:41.251Z,100.00
2023-12-17T17:16:08.495Z,100.00
2023-12-17T17:18:35.439Z,100.00
2023-12-17T17:21:02.350Z,100.00
2023-12-17T17:23:29.194Z,100.00
2023-12-17T17:25:57.580Z,100.00
2023-12-17T17:28:24.506Z,100.00
2023-12-17T17:30:51.408Z,100.00
2023-12-17T17:33:18.453Z,100.00
2023-12-17T17:35:45.632Z,100.00
2023-12-17T17:38:12.384Z,100.00
2023-12-17T17:40:39.250Z,100.00
2023-12-17T17:43:06.034Z,100.00
2023-12-17T17:45:32.840Z,100.00
2023-12-17T17:48:02.732Z,100.00
2023-12-17T17:50:29.640Z,100.00
2023-12-17T17:52:56.360Z,100.00
2023-12-17T17:55:23.138Z,100.00
2023-12-17T17:57:52.752Z,100.00
2023-12-17T18:00:19.954Z,100.00
2023-12-17T18:02:46.742Z,100.00
2023-12-17T18:05:14.908Z,100.00
2023-12-17T18:07:41.696Z,100.00
2023-12-17T18:10:11.469Z,100.00
2023-12-17T18:12:38.419Z,100.00
2023-12-17T18:15:05.915Z,100.00
2023-12-17T18:17:32.861Z,100.00
2023-12-17T18:20:03.766Z,100.00
2023-12-17T18:22:30.485Z,100.00
2023-12-17T18:25:01.946Z,100.00
2023-12-17T18:27:28.787Z,100.00
2023-12-17T18:29:55.941Z,100.00
2023-12-17T18:32:23.029Z,100.00
2023-12-17T18:34:49.792Z,100.00
2023-12-17T18:37:16.542Z,100.00
2023-12-17T18:39:43.312Z,100.00
2023-12-17T18:42:10.223Z,100.00
2023-12-17T18:44:37.015Z,100.00
2023-12-17T18:47:03.993Z,100.00
2023-12-17T18:49:31.040Z,100.00
2023-12-17T18:51:57.939Z,100.00
2023-12-17T18:54:24.636Z,100.00
2023-12-17T18:56:51.326Z,100.00
2023-12-17T18:59:18.094Z,100.00
2023-12-17T19:01:47.965Z,100.00
2023-12-17T19:04:17.963Z,100.00
2023-12-17T19:06:48.204Z,100.00
2023-12-17T19:09:14.943Z,100.00
2023-12-17T19:11:41.661Z,100.00
2023-12-17T19:14:08.451Z,100.00
2023-12-17T19:16:35.191Z,100.00
2023-12-17T19:19:02.091Z,100.00
2023-12-17T19:21:28.843Z,100.00
2023-12-17T19:23:55.660Z,100.00
2023-12-17T19:26:22.364Z,100.00
2023-12-17T19:28:49.093Z,100.00
2023-12-17T19:31:15.886Z,100.00
2023-12-17T19:33:43.495Z,100.00
2023-12-17T19:36:10.238Z,100.00
2023-12-17T19:38:36.934Z,100.00
2023-12-17T19:41:03.719Z,100.00
2023-12-17T19:43:30.436Z,100.00
2023-12-17T19:45:57.340Z,100.00
2023-12-17T19:48:26.557Z,100.00
2023-12-17T19:50:53.735Z,100.00
2023-12-17T19:53:20.375Z,100.00
2023-12-17T19:55:47.115Z,100.00
2023-12-17T19:58:14.217Z,100.00
2023-12-17T20:00:41.055Z,100.00
2023-12-17T20:03:07.899Z,100.00
2023-12-17T20:05:34.661Z,100.00
2023-12-17T20:08:01.417Z,100.00
2023-12-17T20:10:28.120Z,100.00
2023-12-17T20:12:54.958Z,100.00
2023-12-17T20:15:21.762Z,100.00
2023-12-17T20:17:48.626Z,100.00
2023-12-17T20:20:15.778Z,100.00
2023-12-17T20:22:45.443Z,100.00
2023-12-17T20:25:12.399Z,100.00
2023-12-17T20:27:40.269Z,100.00
2023-12-17T20:30:07.718Z,100.00
2023-12-17T20:32:34.884Z,100.00
2023-12-17T20:35:03.817Z,100.00
2023-12-17T20:37:30.694Z,100.00
2023-12-17T20:40:00.223Z,100.00
2023-12-17T20:42:27.104Z,100.00
2023-12-17T20:44:58.497Z,100.00
2023-12-17T20:47:37.263Z,100.00
2023-12-17T20:50:07.804Z,100.00
2023-12-17T20:52:34.551Z,100.00
2023-12-17T20:55:06.778Z,100.00
2023-12-17T20:57:34.452Z,100.00
2023-12-17T21:00:01.226Z,100.00
2023-12-17T21:02:27.973Z,100.00
2023-12-17T21:04:54.715Z,100.00
2023-12-17T21:07:21.447Z,100.00
2023-12-17T21:09:48.347Z,100.00
2023-12-17T21:12:15.176Z,100.00
2023-12-17T21:14:41.831Z,100.00
2023-12-17T21:17:08.665Z,100.00
2023-12-17T21:19:35.985Z,100.00
2023-12-17T21:22:02.955Z,100.00
2023-12-17T21:24:29.791Z,100.00
2023-12-17T21:26:58.308Z,100.00
2023-12-17T21:29:25.393Z,100.00
2023-12-17T21:31:52.344Z,100.00
2023-12-17T21:34:19.080Z,100.00
2023-12-17T21:36:45.923Z,100.00
2023-12-17T21:39:12.670Z,100.00
2023-12-17T21:41:39.460Z,100.00
2023-12-17T21:44:06.243Z,100.00
2023-12-17T21:46:32.945Z,100.00
2023-12-17T21:48:59.881Z,100.00
2023-12-17T21:51:26.926Z,100.00
2023-12-17T21:53:53.697Z,100.00
2023-12-17T21:56:20.413Z,100.00
2023-12-17T21:58:47.078Z,100.00
2023-12-17T22:01:14.006Z,100.00
2023-12-17T22:03:40.793Z,100.00
2023-12-17T22:06:07.749Z,100.00
2023-12-17T22:08:34.692Z,100.00
2023-12-17T22:11:03.000Z,100.00
2023-12-17T22:13:29.771Z,100.00
2023-12-17T22:15:56.455Z,100.00
2023-12-17T22:18:23.290Z,100.00
2023-12-17T22:20:50.025Z,100.00
2023-12-17T22:23:16.824Z,100.00
2023-12-17T22:25:43.765Z,100.00
2023-12-17T22:28:10.687Z,100.00
2023-12-17T22:30:37.614Z,100.00
2023-12-17T22:33:04.829Z,100.00
2023-12-17T22:35:31.633Z,100.00
2023-12-17T22:37:58.307Z,100.00
2023-12-17T22:40:25.035Z,100.00
2023-12-17T22:42:51.718Z,100.00
2023-12-17T22:45:18.495Z,100.00
2023-12-17T22:47:45.690Z,100.00
2023-12-17T22:50:13.086Z,100.00
2023-12-17T22:52:39.774Z,100.00
2023-12-17T22:55:07.677Z,100.00
2023-12-17T22:57:34.420Z,100.00
2023-12-17T23:00:01.168Z,100.00
2023-12-17T23:02:27.856Z,100.00
2023-12-17T23:04:54.658Z,100.00
2023-12-17T23:07:22.923Z,100.00
2023-12-17T23:09:49.671Z,100.00
2023-12-17T23:12:16.687Z,100.00
2023-12-17T23:14:43.560Z,100.00
2023-12-17T23:17:10.383Z,100.00
2023-12-17T23:19:37.138Z,100.00
2023-12-17T23:22:05.052Z,100.00
2023-12-17T23:24:34.840Z,100.00
2023-12-17T23:27:01.700Z,100.00
2023-12-17T23:29:29.437Z,100.00
2023-12-17T23:31:56.093Z,100.00
2023-12-17T23:34:23.088Z,100.00
2023-12-17T23:36:50.117Z,100.00
2023-12-17T23:39:16.948Z,100.00
2023-12-17T23:41:43.747Z,100.00
2023-12-17T23:44:10.537Z,100.00
2023-12-17T23:46:37.246Z,100.00
2023-12-17T23:49:04.092Z,100.00
2023-12-17T23:51:30.878Z,100.00
2023-12-17T23:53:57.708Z,100.00
2023-12-17T23:56:24.601Z,100.00
2023-12-17T23:58:51.387Z,100.00
